Airfield :
LOGIN :

Register | Disclaimer

   EN    FR    IT 

 










Legend :    VFR   Marginal VFR   IFR   Intensive IFR   Very Intensive IFR
Visi :
Ceiling :
>= 8 km
>= 3000ft
5 to 8 km
1000 to 3000 ft
1500m to 5 km
500 to 1000 ft
800 to 1500m
200 to 500 ft
< 800m
< 200 ft
Symbols :   Thunderstorms  Fog  Heavy snow  Heavy precipitations  Wind > 20 kt
SIGMETs :     Misc.  Thunderstorms  Icing  Turbulence  Mountain Waves  Volcanic Ashes






- Airport Elevation : 1411 ft
- IATA code : SZG


LOWS - Salzburg

CURRENT METAR :
  • 191520Z 25011KT 210V290 9999 5000S -SHRASN FEW006 SCT010 BKN024 02/01 Q1022 TEMPO 4000

EXPIRED METARs :
  • 191450Z 29015KT 6000 SHRASN FEW008 SCT015 BKN024 02/01 Q1021 TEMPO 4000
  • 191420Z 32010KT 6000 VCSH FEW012 SCT025 BKN040 04/01 Q1021 TEMPO 4000 SHRA
  • 191350Z 24012KT 210V270 9999 -SHRA FEW014 SCT025 BKN045 04/01 Q1020 RERA TEMPO 4000 TSRA SCT025CB BKN040
  • 191320Z 25009KT 220V280 9999 -RA FEW014 SCT026 BKN045 05/01 Q1019 TEMPO 28015G30KT 4000 SHRA
  • 191250Z VRB02KT 9999 -RA FEW020 SCT040 BKN055 05/01 Q1019 TEMPO 30015G30KT 4000 SHRA

TAF TAF LOWS
Valid from the 19 at 12:00 until the 20 at 12:00 UTC


191115Z 1912/2012 28006KT 9999 SCT040 BKN060 TX08/2012Z TN01/2005Z
TEMPO 1912/1916 29015G30KT 4000 SHRA SCT025TCU BKN050
PROB30
TEMPO 1913/1916 30020G35KT 2500 TSGS SCT012 BKN020CB
TEMPO 1916/1924 29012G22KT -SHSN BKN025
BECMG 2000/2002 15006KT BKN050
TEMPO 2002/2009 16012KT



MET'MAP, your aeronautical weather chart ! - Copyright ORBIFLY December 2007 - Disclaimer

ORBIFLY MET'MAP TEAM :

Programming & Development : Alexandra Zaïnal
Concept & original design : Baudouin d'Aumeries
Assistance for programming : Marc-Olivier Méhu
Technical & hardware support : Manuel Goepfert

Contact : metmap@orbifly.com




SOURCES & CREDITS :

   NOAA